Time;durP1;ratioP1;P1;durP2;ratioP2;P2;SDS_P1;SDS_P2;PMS_P1;PMS_P2;Temp;Humidity;BMP_temperature;BMP_pressure;BME280_temperature;BME280_humidity;BME280_pressure;Samples;Min_cycle;Max_cycle;Signal;HPM_P1;HPM_P2
2022/06/22 00:00:18;;;;;;;15.38;14.27;;;20.80;99.90;;;;;;5030639;28;20269;-78
2022/06/22 00:02:47;;;;;;;14.50;13.57;;;20.70;99.90;;;;;;5030482;28;20695;-77
2022/06/22 00:05:20;;;;;;;14.35;13.43;;;20.70;99.90;;;;;;5030587;28;20183;-77
2022/06/22 00:07:53;;;;;;;15.07;14.05;;;20.70;99.90;;;;;;5029629;28;20183;-77
2022/06/22 00:10:19;;;;;;;13.32;12.52;;;20.70;99.90;;;;;;5031579;28;20564;-78
2022/06/22 00:12:54;;;;;;;14.48;13.57;;;20.60;99.90;;;;;;5030366;28;20190;-77
2022/06/22 00:15:29;;;;;;;15.57;14.68;;;20.50;99.90;;;;;;5030414;28;20175;-77
2022/06/22 00:17:55;;;;;;;13.43;12.23;;;20.40;99.90;;;;;;5029717;28;20174;-77
2022/06/22 00:20:28;;;;;;;8.93;8.32;;;20.30;99.90;;;;;;5031749;28;20338;-77
2022/06/22 00:23:16;;;;;;;9.13;8.52;;;20.30;99.90;;;;;;5030149;28;20245;-77
2022/06/22 00:25:42;;;;;;;9.53;8.73;;;20.30;99.90;;;;;;5031251;28;20183;-77
2022/06/22 00:28:33;;;;;;;9.07;8.23;;;20.20;99.90;;;;;;5029372;28;20682;-77
2022/06/22 00:31:11;;;;;;;10.57;9.63;;;20.10;99.90;;;;;;5031218;28;20234;-77
2022/06/22 00:33:37;;;;;;;9.32;8.73;;;20.00;99.90;;;;;;5031291;28;20608;-77
2022/06/22 00:36:20;;;;;;;8.67;7.90;;;20.00;99.90;;;;;;5030457;28;20175;-77
2022/06/22 00:38:46;;;;;;;8.93;8.32;;;20.00;99.90;;;;;;5030990;28;20245;-78
2022/06/22 00:41:23;;;;;;;9.47;8.50;;;19.90;99.90;;;;;;5030146;28;20574;-77
2022/06/22 00:43:51;;;;;;;9.40;8.80;;;19.90;99.90;;;;;;5031299;28;20182;-77
2022/06/22 00:46:20;;;;;;;10.70;10.00;;;19.80;99.90;;;;;;5032329;28;20179;-77
2022/06/22 00:48:50;;;;;;;9.30;8.65;;;19.70;99.90;;;;;;5031802;28;20214;-77
2022/06/22 00:51:21;;;;;;;9.70;9.10;;;19.70;99.90;;;;;;5032251;28;20234;-77
2022/06/22 00:53:59;;;;;;;10.83;10.03;;;19.70;99.90;;;;;;5029918;28;20186;-77
2022/06/22 00:56:37;;;;;;;11.60;10.80;;;19.70;99.90;;;;;;5029851;28;20186;-77
2022/06/22 00:59:19;;;;;;;11.03;10.17;;;19.70;99.90;;;;;;5029151;28;20274;-77
2022/06/22 01:01:58;;;;;;;10.67;9.63;;;19.70;99.90;;;;;;5030954;28;20211;-77
2022/06/22 01:04:37;;;;;;;11.38;10.45;;;19.60;99.90;;;;;;5029884;28;20529;-77
2022/06/22 01:07:10;;;;;;;12.50;11.70;;;19.50;99.90;;;;;;5030279;28;20194;-77
2022/06/22 01:09:59;;;;;;;12.15;11.45;;;19.50;99.90;;;;;;5030680;28;20730;-78
2022/06/22 01:12:39;;;;;;;11.15;10.40;;;19.50;99.90;;;;;;5030948;28;20201;-77
2022/06/22 01:15:08;;;;;;;10.50;9.70;;;19.50;99.90;;;;;;5035764;28;20229;-76
2022/06/22 01:17:43;;;;;;;12.80;11.77;;;19.50;99.90;;;;;;5033007;28;20185;-77
2022/06/22 01:20:24;;;;;;;11.60;10.70;;;19.40;99.90;;;;;;5031767;28;20680;-77
2022/06/22 01:23:41;;;;;;;13.40;12.50;;;19.50;99.90;;;;;;5030863;28;20211;-77
2022/06/22 01:26:27;;;;;;;14.97;14.17;;;19.40;99.90;;;;;;5008347;28;20219;-77
2022/06/22 01:28:58;;;;;;;16.70;15.10;;;19.40;99.90;;;;;;5028575;28;20224;-77
2022/06/22 01:31:24;;;;;;;18.60;17.43;;;19.50;99.90;;;;;;5030567;28;20260;-76
2022/06/22 01:33:52;;;;;;;24.87;23.47;;;19.50;99.90;;;;;;5029476;28;20171;-77
2022/06/22 01:36:25;;;;;;;18.53;17.43;;;19.50;99.90;;;;;;5030607;28;20187;-77
2022/06/22 01:38:52;;;;;;;21.10;19.50;;;19.60;99.90;;;;;;5031263;28;20245;-77
2022/06/22 01:41:30;;;;;;;16.63;15.57;;;19.50;99.90;;;;;;5034318;28;20203;-77
2022/06/22 01:44:20;;;;;;;22.83;21.50;;;19.50;99.90;;;;;;5033204;28;20229;-77
2022/06/22 01:47:11;;;;;;;18.63;17.40;;;19.50;99.90;;;;;;5032946;28;20203;-77
2022/06/22 01:49:57;;;;;;;23.23;21.80;;;19.50;99.90;;;;;;5034822;28;20203;-77
2022/06/22 01:52:53;;;;;;;18.47;17.03;;;19.50;99.90;;;;;;5033635;28;20607;-77
2022/06/22 01:55:39;;;;;;;14.93;14.03;;;19.50;99.90;;;;;;5033300;28;20179;-77
2022/06/22 01:58:14;;;;;;;19.20;18.03;;;19.50;99.90;;;;;;5033583;28;20183;-77
2022/06/22 02:00:43;;;;;;;23.57;22.27;;;19.50;99.90;;;;;;5033090;28;20183;-77
2022/06/22 02:03:33;;;;;;;21.05;19.48;;;19.40;99.90;;;;;;5034462;28;20175;-76
2022/06/22 02:07:44;;;;;;;35.60;33.67;;;19.40;99.90;;;;;;5032988;28;20179;-77
2022/06/22 02:09:07;;;;;;;58.27;54.93;;;19.40;99.90;;;;;;5033087;28;20222;-77
2022/06/22 02:11:39;;;;;;;70.10;66.53;;;19.40;99.90;;;;;;5033904;28;20207;-77
2022/06/22 02:14:27;;;;;;;50.33;47.30;;;19.40;99.90;;;;;;5033863;28;20183;-77
2022/06/22 02:16:57;;;;;;;45.03;42.40;;;19.40;99.90;;;;;;5032887;28;20175;-77
2022/06/22 02:19:24;;;;;;;48.90;46.37;;;19.40;99.90;;;;;;5033747;28;20270;-77
2022/06/22 02:21:52;;;;;;;81.03;76.93;;;19.40;99.90;;;;;;5033694;28;20206;-76
2022/06/22 02:24:29;;;;;;;68.20;64.47;;;19.40;99.90;;;;;;5033839;28;20592;-77
2022/06/22 02:27:05;;;;;;;50.83;48.10;;;19.40;99.90;;;;;;5032957;28;20206;-77
2022/06/22 02:29:40;;;;;;;50.27;47.37;;;19.40;99.90;;;;;;5033648;28;20203;-76
2022/06/22 02:32:10;;;;;;;44.17;41.50;;;19.40;99.90;;;;;;5033491;28;20210;-77
2022/06/22 02:34:41;;;;;;;46.28;43.80;;;19.50;99.90;;;;;;5034147;28;20687;-76
2022/06/22 02:37:10;;;;;;;70.87;67.07;;;19.50;99.90;;;;;;5035597;28;20179;-76
2022/06/22 02:39:43;;;;;;;85.70;81.47;;;19.40;99.90;;;;;;5033355;28;20697;-76
2022/06/22 02:44:54;;;;;;;67.90;64.37;;;19.40;99.90;;;;;;5034822;28;20183;-76
2022/06/22 02:47:48;;;;;;;60.27;57.10;;;19.40;99.90;;;;;;5031323;28;20183;-76
2022/06/22 02:50:38;;;;;;;78.80;74.87;;;19.40;99.90;;;;;;5032012;28;20198;-76
2022/06/22 02:53:33;;;;;;;51.50;48.60;;;19.50;99.90;;;;;;5033226;28;20183;-76
2022/06/22 02:56:00;;;;;;;51.63;48.70;;;19.60;99.90;;;;;;5031786;28;20717;-76
2022/06/22 02:58:27;;;;;;;77.30;73.27;;;19.60;99.90;;;;;;5032214;28;20213;-76
2022/06/22 03:00:54;;;;;;;54.67;51.60;;;19.60;99.90;;;;;;5033282;28;20206;-76
2022/06/22 03:03:21;;;;;;;49.50;46.70;;;19.70;99.90;;;;;;5031858;28;20183;-76
2022/06/22 03:05:49;;;;;;;39.17;36.73;;;19.70;99.90;;;;;;5031784;28;20187;-76
2022/06/22 03:08:18;;;;;;;22.67;21.20;;;19.60;99.90;;;;;;5030820;28;20679;-76
2022/06/22 03:10:55;;;;;;;33.17;31.17;;;19.60;99.90;;;;;;5031460;28;20240;-76
2022/06/22 03:13:32;;;;;;;35.73;33.83;;;19.60;99.90;;;;;;5032750;28;20179;-76
2022/06/22 03:15:59;;;;;;;40.93;38.73;;;19.60;99.90;;;;;;5033166;28;20655;-76
2022/06/22 03:18:29;;;;;;;38.20;36.00;;;19.60;99.90;;;;;;5031869;28;20643;-76
2022/06/22 03:21:04;;;;;;;58.20;54.83;;;19.60;99.90;;;;;;5032434;28;20686;-76
2022/06/22 03:23:53;;;;;;;74.00;70.20;;;19.50;99.90;;;;;;5032626;28;20277;-76
2022/06/22 03:26:21;;;;;;;71.37;67.77;;;19.60;99.90;;;;;;5035370;28;20604;-76
2022/06/22 03:28:55;;;;;;;77.93;73.83;;;19.50;99.90;;;;;;5033723;28;20207;-76
2022/06/22 03:31:32;;;;;;;49.53;46.73;;;19.60;99.90;;;;;;5035270;28;20249;-76
2022/06/22 03:34:05;;;;;;;73.10;69.50;;;19.60;99.90;;;;;;5032444;28;20261;-76
2022/06/22 03:36:43;;;;;;;76.23;72.23;;;19.70;99.90;;;;;;5032437;28;20644;-76
2022/06/22 03:39:14;;;;;;;77.43;73.40;;;19.70;99.90;;;;;;5030470;28;20233;-76
2022/06/22 03:41:47;;;;;;;69.83;66.13;;;19.60;99.90;;;;;;5031001;28;20211;-76
2022/06/22 03:44:19;;;;;;;64.63;61.23;;;19.50;99.90;;;;;;5032460;28;20179;-76
2022/06/22 03:46:52;;;;;;;54.67;51.87;;;19.50;99.90;;;;;;5031582;28;20521;-77
2022/06/22 03:49:31;;;;;;;35.50;33.57;;;19.50;99.90;;;;;;5031782;28;20846;-76
2022/06/22 03:51:57;;;;;;;78.17;74.07;;;19.60;99.90;;;;;;5031821;28;20214;-76
2022/06/22 03:54:26;;;;;;;49.17;46.43;;;19.60;99.90;;;;;;5030736;28;20273;-76
2022/06/22 03:56:55;;;;;;;52.17;49.22;;;19.70;99.90;;;;;;5030207;28;20175;-76
2022/06/22 03:59:22;;;;;;;61.63;58.23;;;19.70;99.90;;;;;;5030588;28;20187;-76
2022/06/22 04:01:48;;;;;;;78.40;74.60;;;19.70;99.90;;;;;;5031279;28;20244;-76
2022/06/22 04:04:14;;;;;;;71.03;66.97;;;19.80;99.90;;;;;;5031781;28;20214;-76
2022/06/22 04:06:46;;;;;;;62.30;58.90;;;19.80;99.90;;;;;;5031669;28;20194;-76
2022/06/22 04:09:18;;;;;;;53.87;50.77;;;19.90;99.90;;;;;;5030324;28;20217;-76
2022/06/22 04:11:51;;;;;;;54.17;51.13;;;19.90;99.90;;;;;;5030627;28;20734;-76
2022/06/22 04:14:24;;;;;;;43.20;40.53;;;19.90;99.90;;;;;;5031916;28;20708;-77
2022/06/22 04:17:05;;;;;;;41.70;39.00;;;19.90;99.90;;;;;;5031025;28;20179;-77
2022/06/22 04:19:37;;;;;;;44.63;41.87;;;20.00;99.90;;;;;;5031493;28;20655;-77
2022/06/22 04:22:13;;;;;;;53.23;49.30;;;20.00;99.90;;;;;;5030568;28;20199;-77
2022/06/22 04:24:54;;;;;;;44.67;42.05;;;20.10;99.90;;;;;;5032008;28;20202;-76
2022/06/22 04:27:38;;;;;;;42.03;39.75;;;20.20;99.90;;;;;;5030852;28;20600;-77
2022/06/22 04:30:13;;;;;;;46.08;43.35;;;20.10;99.90;;;;;;5031711;28;20207;-76
2022/06/22 04:32:49;;;;;;;37.65;35.35;;;20.20;99.90;;;;;;5031394;28;20682;-77
2022/06/22 04:35:36;;;;;;;36.20;33.87;;;20.20;99.90;;;;;;5032100;28;20175;-77
2022/06/22 04:38:21;;;;;;;32.67;30.57;;;20.30;99.90;;;;;;5031660;28;20183;-76
2022/06/22 04:40:51;;;;;;;30.13;28.58;;;20.30;99.90;;;;;;5033036;28;20262;-76
2022/06/22 04:43:17;;;;;;;21.75;20.55;;;20.40;99.90;;;;;;5031828;28;20233;-76
2022/06/22 04:45:46;;;;;;;15.63;14.48;;;20.50;99.90;;;;;;5031656;28;20175;-76
2022/06/22 04:48:28;;;;;;;15.45;14.45;;;20.50;99.90;;;;;;5029059;28;20182;-76
2022/06/22 04:50:58;;;;;;;10.55;9.65;;;20.60;99.90;;;;;;5029857;28;20245;-75
2022/06/22 04:53:34;;;;;;;10.82;9.85;;;20.80;99.90;;;;;;5029903;28;20731;-75
2022/06/22 04:56:10;;;;;;;8.38;7.70;;;20.90;99.90;;;;;;5031269;28;20273;-76
2022/06/22 04:58:46;;;;;;;9.43;8.82;;;21.10;99.90;;;;;;5030219;28;20246;-76
2022/06/22 05:01:24;;;;;;;15.73;14.70;;;21.20;99.90;;;;;;5031286;28;20229;-76
2022/06/22 05:03:54;;;;;;;31.20;29.52;;;21.30;99.90;;;;;;5029845;28;20268;-76
2022/06/22 05:06:33;;;;;;;13.88;13.00;;;21.60;99.90;;;;;;5030891;28;20189;-76
2022/06/22 05:09:21;;;;;;;6.90;6.25;;;21.80;99.90;;;;;;5029964;28;20209;-75
2022/06/22 05:11:48;;;;;;;6.85;6.13;;;21.80;99.90;;;;;;5030809;28;20202;-75
2022/06/22 05:14:30;;;;;;;7.72;6.93;;;21.90;99.90;;;;;;5034292;28;20178;-76
2022/06/22 05:17:01;;;;;;;9.50;7.32;;;21.80;99.90;;;;;;5033334;28;20183;-76
2022/06/22 05:19:37;;;;;;;7.68;6.70;;;21.80;99.90;;;;;;5035114;28;20461;-76
2022/06/22 05:22:11;;;;;;;7.15;6.70;;;21.80;99.90;;;;;;5035466;28;20210;-76
2022/06/22 05:24:38;;;;;;;8.25;7.15;;;21.80;99.90;;;;;;5033840;28;20179;-76
2022/06/22 05:27:07;;;;;;;7.30;6.70;;;21.80;99.90;;;;;;5033048;28;20210;-76
2022/06/22 05:29:41;;;;;;;9.40;7.70;;;21.80;99.90;;;;;;5034800;28;20229;-76
2022/06/22 05:32:15;;;;;;;10.48;9.30;;;21.90;99.90;;;;;;5039799;28;20198;-75
2022/06/22 05:34:44;;;;;;;13.13;11.90;;;22.00;99.90;;;;;;5045105;28;20560;-75
2022/06/22 05:37:19;;;;;;;12.02;11.32;;;22.10;99.90;;;;;;5036605;28;20677;-76
2022/06/22 05:39:46;;;;;;;11.55;10.55;;;22.20;99.90;;;;;;5033517;28;20281;-76
2022/06/22 05:42:14;;;;;;;10.32;9.45;;;22.40;99.90;;;;;;5034430;28;20327;-75
2022/06/22 05:44:41;;;;;;;11.50;10.57;;;22.50;99.90;;;;;;5033224;28;20665;-76
2022/06/22 05:47:18;;;;;;;11.27;10.57;;;22.50;99.90;;;;;;5032817;28;20568;-76
2022/06/22 05:49:55;;;;;;;12.48;11.52;;;22.60;99.90;;;;;;5034340;28;20223;-76
2022/06/22 05:52:39;;;;;;;11.35;10.43;;;22.70;99.90;;;;;;5034145;28;20207;-76
2022/06/22 05:55:22;;;;;;;38.83;36.83;;;23.30;99.90;;;;;;5033232;28;20274;-74
2022/06/22 05:58:14;;;;;;;23.25;21.83;;;24.30;99.90;;;;;;5032414;28;20639;-76
2022/06/22 06:00:49;;;;;;;66.88;63.25;;;25.40;99.90;;;;;;5030277;28;20289;-76
2022/06/22 06:03:32;;;;;;;78.47;74.03;;;25.70;99.90;;;;;;5032972;28;20190;-76
2022/06/22 06:06:10;;;;;;;80.70;76.60;;;25.60;99.90;;;;;;5033100;28;20187;-76
2022/06/22 06:08:44;;;;;;;68.45;64.20;;;25.40;99.90;;;;;;5031999;28;20206;-76
2022/06/22 06:11:16;;;;;;;44.25;41.42;;;25.00;99.90;;;;;;5034366;28;20201;-76
2022/06/22 06:13:52;;;;;;;45.75;43.13;;;24.70;99.90;;;;;;5034025;28;20636;-74
2022/06/22 06:16:26;;;;;;;48.38;45.50;;;24.40;99.90;;;;;;5032688;28;20198;-76
2022/06/22 06:19:05;;;;;;;48.45;45.55;;;24.40;99.90;;;;;;5032015;28;20271;-76
2022/06/22 06:21:36;;;;;;;41.55;39.03;;;24.30;99.90;;;;;;5033970;28;20198;-74
2022/06/22 06:24:20;;;;;;;40.55;38.13;;;24.10;99.90;;;;;;5033509;28;20559;-74
2022/06/22 06:30:03;;;;;;;27.67;25.88;;;24.20;99.90;;;;;;5033577;28;20223;-75
2022/06/22 06:33:01;;;;;;;16.77;15.55;;;24.00;99.90;;;;;;5034008;28;20195;-74
2022/06/22 06:35:33;;;;;;;14.02;13.13;;;23.90;99.90;;;;;;5033520;28;20183;-75
2022/06/22 06:38:13;;;;;;;11.30;10.20;;;23.70;99.90;;;;;;5040212;28;20183;-74
2022/06/22 06:41:01;;;;;;;11.95;11.05;;;23.70;99.90;;;;;;5036804;28;20214;-74
2022/06/22 06:43:32;;;;;;;12.25;11.35;;;23.60;99.90;;;;;;5032803;28;20182;-74
2022/06/22 06:46:00;;;;;;;9.50;8.07;;;23.60;99.90;;;;;;5032675;28;20562;-74
2022/06/22 06:48:28;;;;;;;13.35;7.75;;;23.50;99.90;;;;;;5031329;28;20630;-75
2022/06/22 06:51:01;;;;;;;8.38;7.32;;;23.50;99.90;;;;;;5033122;28;20589;-74
2022/06/22 06:53:53;;;;;;;7.88;7.18;;;23.60;99.90;;;;;;5033259;28;20190;-75
2022/06/22 06:56:34;;;;;;;8.52;7.72;;;23.50;99.90;;;;;;5028656;28;20609;-75
2022/06/22 06:59:10;;;;;;;14.27;8.88;;;23.40;99.90;;;;;;5032589;28;20193;-75
2022/06/22 07:01:39;;;;;;;13.75;12.45;;;23.40;99.90;;;;;;5031912;28;20301;-73
2022/06/22 07:04:13;;;;;;;16.02;14.80;;;23.40;99.90;;;;;;5031970;28;20179;-73
2022/06/22 07:06:39;;;;;;;16.90;15.85;;;23.40;99.90;;;;;;5033134;28;20244;-75
2022/06/22 07:09:24;;;;;;;16.63;15.50;;;23.40;99.90;;;;;;5031082;28;20257;-74
2022/06/22 07:11:54;;;;;;;18.58;17.33;;;23.50;99.90;;;;;;5033267;28;20562;-74
2022/06/22 07:14:29;;;;;;;16.95;15.73;;;23.50;99.90;;;;;;5032903;28;20237;-74
2022/06/22 07:17:02;;;;;;;15.95;9.70;;;23.40;99.90;;;;;;5032449;28;20187;-74
2022/06/22 07:19:38;;;;;;;14.07;12.98;;;23.40;99.90;;;;;;5031602;28;20187;-73
2022/06/22 07:22:23;;;;;;;14.27;12.90;;;23.30;99.90;;;;;;5033542;28;20228;-75
2022/06/22 07:25:01;;;;;;;12.27;9.70;;;23.20;99.90;;;;;;5034998;28;20210;-74
2022/06/22 07:27:43;;;;;;;10.57;9.20;;;23.20;99.90;;;;;;5032364;28;20240;-74
2022/06/22 07:30:09;;;;;;;21.13;19.48;;;23.30;99.90;;;;;;5032898;28;20766;-74
2022/06/22 07:32:46;;;;;;;28.50;26.65;;;23.20;99.90;;;;;;5032379;28;20198;-74
2022/06/22 07:35:24;;;;;;;18.33;16.80;;;23.20;99.90;;;;;;5030269;28;20202;-74
2022/06/22 07:38:11;;;;;;;13.25;12.18;;;23.00;99.90;;;;;;5031556;28;20179;-75
2022/06/22 07:41:18;;;;;;;13.80;12.45;;;23.00;99.90;;;;;;5031080;28;20179;-74
2022/06/22 07:43:26;;;;;;;12.73;11.65;;;23.00;99.90;;;;;;5032754;28;20179;-74
2022/06/22 07:45:52;;;;;;;16.88;15.57;;;22.80;99.90;;;;;;5035730;28;20286;-75
2022/06/22 07:48:20;;;;;;;19.73;17.95;;;22.60;99.90;;;;;;5042008;28;20228;-74
2022/06/22 07:50:51;;;;;;;64.55;60.92;;;22.50;99.90;;;;;;5033645;28;20206;-73
2022/06/22 07:53:38;;;;;;;165.05;156.38;;;22.40;99.90;;;;;;5031916;28;20198;-75
2022/06/22 07:56:33;;;;;;;165.68;156.63;;;22.30;99.90;;;;;;5032079;28;20191;-75
2022/06/22 07:59:15;;;;;;;106.38;100.28;;;22.30;99.90;;;;;;5031198;28;20274;-75
2022/06/22 08:01:42;;;;;;;347.30;328.45;;;22.20;99.90;;;;;;5030681;28;20601;-75
2022/06/22 08:04:39;;;;;;;377.20;357.08;;;22.20;99.90;;;;;;5031963;28;20175;-75
2022/06/22 08:07:15;;;;;;;254.82;241.15;;;22.20;99.90;;;;;;5030887;28;20269;-75
2022/06/22 08:09:52;;;;;;;229.32;217.45;;;22.30;99.90;;;;;;5031598;28;20245;-75
2022/06/22 08:12:41;;;;;;;233.10;221.25;;;22.50;99.90;;;;;;5031696;28;20198;-75
2022/06/22 08:15:12;;;;;;;248.02;235.32;;;22.70;99.90;;;;;;5031465;28;20281;-75
2022/06/22 08:17:50;;;;;;;155.02;146.63;;;23.00;99.90;;;;;;5030800;28;20206;-75
2022/06/22 08:20:20;;;;;;;520.92;489.25;;;23.20;99.90;;;;;;5031465;28;20277;-75
2022/06/22 08:22:48;;;;;;;100.53;95.00;;;23.30;99.90;;;;;;5031385;28;20206;-74
2022/06/22 08:25:18;;;;;;;24.98;23.13;;;23.50;99.90;;;;;;5030168;28;20187;-75
2022/06/22 08:27:45;;;;;;;12.00;10.88;;;23.80;99.90;;;;;;5029417;28;20241;-75
2022/06/22 08:30:12;;;;;;;15.43;14.13;;;24.00;99.90;;;;;;5031079;28;20215;-75
2022/06/22 08:32:48;;;;;;;12.43;11.23;;;24.20;99.90;;;;;;5031286;28;20199;-75
2022/06/22 08:35:23;;;;;;;37.55;35.30;;;24.30;99.90;;;;;;5030552;28;20561;-75
2022/06/22 08:38:21;;;;;;;12.35;11.13;;;24.40;99.90;;;;;;5029479;28;20178;-75
2022/06/22 08:41:14;;;;;;;9.60;8.73;;;24.40;99.90;;;;;;5030231;28;20183;-75
2022/06/22 08:43:56;;;;;;;10.00;9.10;;;24.40;99.90;;;;;;5031263;28;20275;-75
2022/06/22 08:46:46;;;;;;;13.98;11.80;;;24.40;99.90;;;;;;5030147;28;20655;-75
2022/06/22 08:49:18;;;;;;;10.88;9.55;;;24.20;99.90;;;;;;5029802;28;20233;-74
2022/06/22 08:51:59;;;;;;;11.70;10.50;;;24.10;99.90;;;;;;5030791;28;20224;-75
2022/06/22 08:54:48;;;;;;;13.85;12.65;;;24.10;99.90;;;;;;5029817;28;20543;-75
2022/06/22 08:57:48;;;;;;;13.20;11.00;;;24.00;99.90;;;;;;5031658;28;20381;-75
2022/06/22 09:00:59;;;;;;;12.23;10.95;;;23.90;99.90;;;;;;5029805;28;20183;-75
2022/06/22 09:03:46;;;;;;;19.10;17.63;;;23.80;99.90;;;;;;5027849;28;20574;-75
2022/06/22 09:06:47;;;;;;;51.85;48.80;;;23.70;99.90;;;;;;5030031;28;20186;-75
2022/06/22 09:09:31;;;;;;;57.63;54.35;;;23.70;99.90;;;;;;5011180;28;20312;-75
2022/06/22 09:12:05;;;;;;;66.47;62.60;;;23.70;99.90;;;;;;5031314;28;20209;-75
2022/06/22 09:14:49;;;;;;;65.07;61.25;;;23.70;99.90;;;;;;5030184;28;20236;-74
2022/06/22 09:17:36;;;;;;;53.47;50.35;;;23.80;99.90;;;;;;5030785;28;20183;-75
2022/06/22 09:20:33;;;;;;;55.85;52.58;;;23.90;99.90;;;;;;5029826;28;20198;-75
2022/06/22 09:23:20;;;;;;;26.60;24.15;;;24.00;99.90;;;;;;5030868;28;20581;-74
2022/06/22 09:25:50;;;;;;;13.73;12.55;;;24.20;99.90;;;;;;5030118;28;20819;-75
2022/06/22 09:28:26;;;;;;;11.60;10.50;;;24.30;99.90;;;;;;5029703;28;20728;-75
2022/06/22 09:31:08;;;;;;;12.55;11.50;;;24.50;99.90;;;;;;5030954;28;20691;-75
2022/06/22 09:33:58;;;;;;;13.15;11.77;;;24.70;99.90;;;;;;5030931;28;20186;-75
2022/06/22 09:36:39;;;;;;;14.88;13.57;;;24.90;99.90;;;;;;5030847;28;20194;-75
2022/06/22 09:39:17;;;;;;;17.60;16.00;;;25.00;99.90;;;;;;5030071;28;20241;-74
2022/06/22 09:42:07;;;;;;;15.57;14.25;;;25.10;99.90;;;;;;5029288;28;20290;-75
2022/06/22 09:45:15;;;;;;;16.20;14.80;;;25.30;99.90;;;;;;5030687;28;20643;-75
2022/06/22 09:48:08;;;;;;;27.95;26.05;;;25.40;99.90;;;;;;5027838;28;20269;-76
2022/06/22 09:50:59;;;;;;;27.75;26.05;;;25.50;99.90;;;;;;5029169;28;20635;-75
2022/06/22 09:53:43;;;;;;;28.17;25.98;;;25.40;99.90;;;;;;5030824;28;20187;-75
2022/06/22 09:56:33;;;;;;;21.17;19.48;;;25.30;99.90;;;;;;5030651;28;20190;-75
2022/06/22 09:59:20;;;;;;;15.68;14.15;;;25.10;99.90;;;;;;5029497;28;20237;-75
2022/06/22 10:01:55;;;;;;;13.25;12.02;;;24.90;99.90;;;;;;5033432;28;20206;-75
2022/06/22 10:04:58;;;;;;;19.58;18.08;;;24.80;99.90;;;;;;5035002;28;20206;-75
2022/06/22 10:07:52;;;;;;;16.00;14.68;;;24.70;99.90;;;;;;5032839;28;20186;-75
2022/06/22 10:10:35;;;;;;;12.80;11.65;;;24.60;99.90;;;;;;5034486;28;20206;-75
2022/06/22 10:13:26;;;;;;;16.13;14.82;;;24.40;99.90;;;;;;5033456;28;20179;-75
2022/06/22 10:16:22;;;;;;;19.67;17.88;;;24.30;99.90;;;;;;5034762;28;20578;-76
2022/06/22 10:19:04;;;;;;;17.48;15.98;;;24.20;99.90;;;;;;5033861;28;20191;-75
2022/06/22 10:21:55;;;;;;;18.25;16.65;;;24.30;99.90;;;;;;5034767;28;20210;-75
2022/06/22 10:24:23;;;;;;;22.52;20.48;;;24.30;99.90;;;;;;5032880;28;20211;-75
2022/06/22 10:27:07;;;;;;;18.77;17.02;;;24.40;99.90;;;;;;5033025;28;20185;-74
2022/06/22 10:29:52;;;;;;;16.95;15.60;;;24.30;99.90;;;;;;5032351;28;20218;-75
2022/06/22 10:32:26;;;;;;;21.63;19.73;;;24.40;99.90;;;;;;5032308;28;20279;-75
2022/06/22 10:34:55;;;;;;;19.73;18.30;;;24.40;99.90;;;;;;5033619;28;20178;-75
2022/06/22 10:37:59;;;;;;;17.55;16.00;;;24.30;99.90;;;;;;5032952;28;20249;-75
2022/06/22 10:46:44;;;;;;;16.70;15.45;;;24.00;99.90;;;;;;5033193;28;20237;-75
2022/06/22 10:49:29;;;;;;;36.45;33.85;;;24.00;99.90;;;;;;5031859;28;20253;-75
2022/06/22 10:52:33;;;;;;;22.17;20.48;;;24.00;99.90;;;;;;5047906;22;20599;-78
2022/06/22 10:55:24;;;;;;;30.98;28.63;;;23.80;99.90;;;;;;4985098;28;20330;-78
2022/06/22 10:58:14;;;;;;;23.45;21.50;;;23.50;99.90;;;;;;5016087;28;20192;-80
2022/06/22 11:01:18;;;;;;;21.55;19.83;;;23.30;99.90;;;;;;5017515;28;20267;-78
2022/06/22 11:04:43;;;;;;;14.50;13.23;;;23.20;99.90;;;;;;4992630;28;20203;-77
2022/06/22 11:07:28;;;;;;;29.60;27.52;;;22.90;99.90;;;;;;4952895;28;20215;-79
2022/06/22 11:10:14;;;;;;;87.60;82.18;;;22.50;99.90;;;;;;4937040;29;20220;-78
2022/06/22 11:12:59;;;;;;;227.45;214.60;;;22.10;99.90;;;;;;4956841;28;20200;-79
2022/06/22 11:15:46;;;;;;;127.93;120.47;;;22.00;99.90;;;;;;4997911;28;20315;-79
2022/06/22 11:18:38;;;;;;;129.40;122.20;;;21.80;99.90;;;;;;4995670;28;20279;-79
2022/06/22 11:21:16;;;;;;;110.13;103.95;;;21.70;99.90;;;;;;4995148;28;20176;-79
2022/06/22 11:24:24;;;;;;;61.00;57.22;;;21.50;99.90;;;;;;4995062;28;20180;-78
2022/06/22 11:30:48;;;;;;;22.87;20.97;;;21.10;99.90;;;;;;4994922;28;20696;-79
2022/06/22 11:33:30;;;;;;;37.50;35.07;;;20.90;99.90;;;;;;4996078;28;20204;-78
2022/06/22 11:36:15;;;;;;;51.03;47.97;;;20.80;99.90;;;;;;4977808;28;20188;-78
2022/06/22 11:38:58;;;;;;;50.73;47.70;;;20.80;99.90;;;;;;4994257;28;20326;-78
2022/06/22 11:41:50;;;;;;;133.90;126.47;;;20.80;99.90;;;;;;4995783;28;20207;-78
2022/06/22 11:44:18;;;;;;;120.43;113.83;;;20.80;99.90;;;;;;4994500;28;20195;-78
2022/06/22 11:46:52;;;;;;;128.87;121.67;;;20.80;99.90;;;;;;4994521;28;20222;-79
2022/06/22 11:49:44;;;;;;;292.45;275.13;;;21.00;99.90;;;;;;5009482;28;20222;-78
2022/06/22 11:52:41;;;;;;;227.20;213.80;;;21.00;99.90;;;;;;5008769;28;20265;-78
2022/06/22 11:55:33;;;;;;;184.87;173.57;;;21.00;99.90;;;;;;5001047;28;20270;-78
2022/06/22 11:58:25;;;;;;;198.93;187.10;;;21.10;99.90;;;;;;4993969;28;20199;-78
2022/06/22 12:00:51;;;;;;;203.13;191.13;;;21.10;99.90;;;;;;4996495;28;20185;-78
2022/06/22 12:03:57;;;;;;;282.40;267.47;;;21.30;99.90;;;;;;4995153;28;20207;-77
2022/06/22 12:06:45;;;;;;;231.38;218.15;;;21.60;99.90;;;;;;4995842;28;20184;-78
2022/06/22 12:09:23;;;;;;;284.37;267.43;;;21.90;99.90;;;;;;4995405;28;20212;-79
2022/06/22 12:12:29;;;;;;;287.40;269.60;;;22.00;99.90;;;;;;4997222;28;20323;-79
2022/06/22 12:15:27;;;;;;;207.82;194.57;;;22.20;99.90;;;;;;4997699;28;20649;-79
2022/06/22 12:18:15;;;;;;;54.20;50.95;;;22.40;99.90;;;;;;4996324;28;20742;-78
2022/06/22 12:20:44;;;;;;;22.52;20.85;;;22.50;99.90;;;;;;4998419;28;20216;-79
2022/06/22 12:23:25;;;;;;;49.65;46.63;;;22.60;99.90;;;;;;4995645;28;20234;-78
2022/06/22 12:26:12;;;;;;;205.35;194.93;;;22.60;99.90;;;;;;5014278;28;20235;-79
2022/06/22 12:29:09;;;;;;;181.75;171.88;;;22.60;99.90;;;;;;5006153;28;20579;-78
2022/06/22 12:31:42;;;;;;;96.45;91.15;;;22.60;99.90;;;;;;4997554;28;20208;-79
2022/06/22 12:34:24;;;;;;;69.25;65.05;;;22.70;99.90;;;;;;4997398;28;20181;-78
2022/06/22 12:36:54;;;;;;;130.60;123.50;;;22.60;99.90;;;;;;4994894;28;20188;-79
2022/06/22 12:39:26;;;;;;;82.75;77.78;;;22.70;99.90;;;;;;4998191;28;20194;-79
2022/06/22 12:42:02;;;;;;;82.82;78.07;;;22.80;99.90;;;;;;5014201;28;20204;-79
2022/06/22 12:44:53;;;;;;;93.50;88.57;;;23.10;99.90;;;;;;4999493;28;20291;-79
2022/06/22 12:47:37;;;;;;;273.88;259.60;;;23.50;99.90;;;;;;4997961;28;20191;-79
2022/06/22 12:50:42;;;;;;;220.05;208.27;;;23.70;99.90;;;;;;5003126;28;20216;-79
2022/06/22 12:53:26;;;;;;;17.80;16.48;;;23.90;99.90;;;;;;4996986;28;20727;-79
2022/06/22 12:56:01;;;;;;;45.05;42.53;;;24.20;99.90;;;;;;5007027;28;20187;-79
2022/06/22 12:58:36;;;;;;;38.28;36.03;;;24.30;99.90;;;;;;4995946;28;20184;-79
2022/06/22 13:01:04;;;;;;;52.92;49.55;;;24.40;99.90;;;;;;4995325;28;20188;-80
2022/06/22 13:03:44;;;;;;;21.98;20.10;;;24.50;99.90;;;;;;4995120;28;20176;-78
2022/06/22 13:06:10;;;;;;;20.05;18.35;;;24.60;99.90;;;;;;4995391;28;20420;-79
2022/06/22 13:08:36;;;;;;;14.68;13.15;;;24.50;99.90;;;;;;4994805;28;20256;-77
2022/06/22 13:11:12;;;;;;;14.80;13.40;;;24.50;99.90;;;;;;4993780;28;20212;-78
2022/06/22 13:14:06;;;;;;;15.43;14.02;;;24.40;99.90;;;;;;4993885;28;20176;-78
2022/06/22 13:16:51;;;;;;;13.50;12.15;;;24.30;99.90;;;;;;4994581;28;20212;-77
2022/06/22 13:19:24;;;;;;;14.43;13.43;;;24.30;99.90;;;;;;5005533;28;20184;-77
2022/06/22 13:22:04;;;;;;;16.38;14.80;;;24.30;99.90;;;;;;5007423;28;20204;-79
2022/06/22 13:24:53;;;;;;;17.65;15.95;;;24.40;99.90;;;;;;5006262;28;20184;-78
2022/06/22 13:27:31;;;;;;;14.60;13.57;;;24.30;99.90;;;;;;4995922;28;20191;-78
2022/06/22 13:30:10;;;;;;;16.70;15.52;;;24.40;99.90;;;;;;4992307;28;20216;-78
2022/06/22 13:32:36;;;;;;;22.08;19.98;;;24.50;99.90;;;;;;4991991;28;20234;-78
2022/06/22 13:35:08;;;;;;;16.25;14.80;;;24.40;99.90;;;;;;4994607;28;20180;-78
2022/06/22 13:37:47;;;;;;;16.55;14.95;;;24.20;99.90;;;;;;4996422;28;20180;-78
2022/06/22 13:40:27;;;;;;;13.18;11.90;;;24.10;99.90;;;;;;4996371;28;20188;-78
2022/06/22 13:43:14;;;;;;;12.75;11.45;;;23.90;99.90;;;;;;4996361;28;20204;-78